Hauptseite
METAR-TAF:

METAR-TAF

Flughäfen :

Flughafen Limoges

Limoges, Frankreich

Breite: 45-52N, Länge: 001-11E, Höhe: 396 m

Beobachtung

Neuester Wetterbericht von vor 30 Minuten, um 03:30 UTC
Wind 4 kt aus Nordost
Temperatur 10°C
Luftfeuchtigkeit 87%
Luftdruck 1022 hPa
Sichtweite 10 km oder mehr
keine Wolken unter 1500 m und keine Kumulonimbus oder Gewitterwolken

METAR: LFBL 160330Z AUTO 05004KT CAVOK 10/08 Q1022 TEMPO 4000 BR

Zeit: 05:00 (04:00 UTC)

Prognose

Neuester Wetterbericht von vor 5 Stunden und 0 Minuten, um 23:00 UTC
Gültige Prognose vom 16 um 00 UTC bis 16 um 24 UTC
Wind 5 kt aus Ost
Sichtweite 10 km oder mehr
keine Wolken unter 1500 m und keine Kumulonimbus oder Gewitterwolken
Wahrscheinlichkeit 30% :
Zeitweise
vom 16 um 01 UTC bis 16 um 07 UTC
Sichtweite: 4000 m
feuchter Dunst

TAF: LFBL 152300Z 1600/1624 08005KT CAVOK PROB30 TEMPO 1601/1607 4000 BR

Wetterbeobachtungen und Prognosen von mehr als 4000 Flughäfen (METAR und TAF Bericht).

Die verfügbaren Stationen werden durch gelbe und rote Markierungen auf der Karte dargestellt.

Führen Sie die Maus auf sie, um den Namen der Station zu sehen.

Darauf klicken, um die Beobachtung von Wetterbeobachtungen und Prognosen zu sehen.

Um die Karte zu ändern : klicken Sie auf den grünen Tasten mit einem schwarzen Kreuz Zum Vergrößern, auf den grünen Button mit einem Gedankenstrich zu verkleinern, oder auf die grünen Pfeile für benachbarte Karten.


METAR-TAF: